Time;durP1;ratioP1;P1;durP2;ratioP2;P2;SDS_P1;SDS_P2;PMS_P1;PMS_P2;Temp;Humidity;BMP_temperature;BMP_pressure;BME280_temperature;BME280_humidity;BME280_pressure;Samples;Min_cycle;Max_cycle;Signal;HPM_P1;HPM_P2
2022/06/05 00:02:01;;;;;;;11.18;10.18;;;;;;;14.45;79.39;101053.02;1744764;80;21934;-91
2022/06/05 00:04:39;;;;;;;12.20;10.72;;;;;;;14.39;79.32;101050.18;1744724;80;21003;-92
2022/06/05 00:07:21;;;;;;;11.08;9.95;;;;;;;14.35;79.43;101055.64;1744416;80;21011;-91
2022/06/05 00:09:59;;;;;;;11.12;9.58;;;;;;;14.32;79.50;101053.13;1744667;80;21474;-90
2022/06/05 00:12:40;;;;;;;11.40;9.70;;;;;;;14.26;79.37;101056.42;1744097;81;21003;-90
2022/06/05 00:15:10;;;;;;;10.00;9.10;;;;;;;14.22;79.52;101052.67;1728996;81;21123;-87
2022/06/05 00:17:38;;;;;;;9.78;8.78;;;;;;;14.16;79.29;101053.80;1740028;80;21081;-84
2022/06/05 00:20:07;;;;;;;10.85;9.40;;;;;;;14.09;79.23;101050.15;1744941;82;21023;-90
2022/06/05 00:22:34;;;;;;;10.40;8.98;;;;;;;14.05;79.54;101050.28;1744743;82;21004;-89
2022/06/05 00:25:02;;;;;;;9.93;9.03;;;;;;;14.00;79.32;101044.33;1745073;82;21520;-89
2022/06/05 00:27:57;;;;;;;10.25;9.25;;;;;;;13.96;79.36;101045.83;1744971;82;21086;-89
2022/06/05 00:30:35;;;;;;;9.25;8.30;;;;;;;13.90;79.14;101043.45;1743378;81;21075;-88
2022/06/05 00:33:08;;;;;;;9.45;8.50;;;;;;;13.83;79.42;101037.12;1745302;80;21698;-89
2022/06/05 00:35:40;;;;;;;9.38;8.48;;;;;;;13.81;79.45;101032.83;1726415;82;21086;-88
2022/06/05 00:38:19;;;;;;;8.53;7.72;;;;;;;13.78;79.47;101036.44;1754962;80;21102;-89
2022/06/05 00:41:12;;;;;;;10.00;7.53;;;;;;;13.73;79.42;101038.86;1751634;80;21796;-90
2022/06/05 00:43:40;;;;;;;7.87;6.92;;;;;;;13.72;79.81;101034.52;1724616;82;21018;-89
2022/06/05 00:46:07;;;;;;;8.28;7.45;;;;;;;13.69;79.56;101033.30;1755322;80;21101;-89
2022/06/05 00:48:35;;;;;;;7.75;7.05;;;;;;;13.63;79.37;101033.55;1732229;82;20988;-88
2022/06/05 00:51:02;;;;;;;8.10;7.25;;;;;;;13.54;79.28;101034.30;1755382;81;21270;-90
2022/06/05 00:53:30;;;;;;;8.23;7.42;;;;;;;13.48;79.34;101039.82;1731313;82;21188;-90
2022/06/05 00:55:58;;;;;;;8.33;7.03;;;;;;;13.44;79.41;101044.83;1755293;80;21038;-91
2022/06/05 00:58:26;;;;;;;7.53;6.72;;;;;;;13.38;79.31;101048.55;1730324;82;21094;-90
2022/06/05 01:00:55;;;;;;;8.25;6.75;;;;;;;13.32;79.37;101051.39;1755360;80;21106;-90
2022/06/05 01:03:24;;;;;;;7.30;6.60;;;;;;;13.30;79.29;101051.05;1729548;82;21719;-90
2022/06/05 01:05:51;;;;;;;9.30;7.20;;;;;;;13.21;79.17;101046.96;1755286;80;21178;-90
2022/06/05 01:08:19;;;;;;;7.72;7.03;;;;;;;13.19;79.64;101058.03;1728754;82;21442;-90
2022/06/05 01:11:04;;;;;;;7.95;7.15;;;;;;;13.25;80.11;101067.47;1755359;81;21469;-92
2022/06/05 01:13:42;;;;;;;7.40;6.70;;;;;;;13.29;80.14;101058.56;1715768;82;21043;-90
2022/06/05 01:16:20;;;;;;;7.62;6.92;;;;;;;13.26;79.83;101054.73;1713404;81;21029;-91
2022/06/05 01:19:02;;;;;;;7.80;6.83;;;;;;;13.20;79.78;101058.88;1744636;80;21942;-90
2022/06/05 01:21:58;;;;;;;6.95;6.35;;;;;;;13.19;80.01;101061.98;1706277;80;21260;-91
2022/06/05 01:25:06;;;;;;;7.22;6.53;;;;;;;13.15;79.93;101060.36;1726542;82;21603;-91
2022/06/05 01:27:37;;;;;;;7.78;6.78;;;;;;;13.08;79.86;101054.91;1746791;80;21023;-90
2022/06/05 01:30:18;;;;;;;7.85;6.92;;;;;;;13.10;80.39;101059.20;1745530;81;21258;-90
2022/06/05 01:32:53;;;;;;;6.90;6.20;;;;;;;13.08;80.34;101063.69;1703869;82;21864;-91
2022/06/05 01:35:26;;;;;;;7.03;6.35;;;;;;;13.08;80.13;101066.75;1733353;81;21019;-90
2022/06/05 01:38:04;;;;;;;7.72;6.60;;;;;;;13.01;80.11;101068.76;1734983;81;21022;-87
2022/06/05 01:40:40;;;;;;;8.33;5.72;;;;;;;13.01;80.31;101067.45;1714739;81;21014;-91
2022/06/05 01:43:13;;;;;;;6.15;5.60;;;;;;;13.06;80.53;101067.29;1751842;81;21587;-91
2022/06/05 01:45:51;;;;;;;6.28;5.67;;;;;;;13.03;80.34;101065.62;1734017;81;21207;-92
2022/06/05 01:48:23;;;;;;;6.33;5.72;;;;;;;13.03;80.29;101068.25;1731327;81;21477;-91
2022/06/05 01:51:01;;;;;;;6.08;5.53;;;;;;;13.03;80.37;101067.41;1697283;83;21042;-91
2022/06/05 01:53:44;;;;;;;6.47;5.72;;;;;;;13.03;80.65;101061.67;1727690;82;21038;-90
2022/06/05 01:56:32;;;;;;;6.40;5.80;;;;;;;13.03;80.20;101062.14;1696313;83;21070;-83
2022/06/05 01:59:16;;;;;;;6.20;5.60;;;;;;;12.97;80.03;101065.85;1726662;82;21156;-90
2022/06/05 02:01:49;;;;;;;7.47;5.87;;;;;;;12.93;80.30;101070.34;1695486;82;21540;-90
2022/06/05 02:04:42;;;;;;;6.60;6.00;;;;;;;12.93;80.59;101064.23;1717194;81;21537;-91
2022/06/05 02:07:26;;;;;;;8.20;7.37;;;;;;;12.94;80.50;101067.25;1746817;81;21596;-90
2022/06/05 02:10:14;;;;;;;7.22;6.47;;;;;;;12.97;81.02;101076.38;1754935;81;21078;-90
2022/06/05 02:12:41;;;;;;;7.78;6.97;;;;;;;13.01;80.76;101077.12;1715304;83;21138;-90
2022/06/05 02:15:09;;;;;;;8.38;7.47;;;;;;;12.95;80.26;101079.52;1752581;81;20929;-90
2022/06/05 02:17:38;;;;;;;8.03;7.33;;;;;;;12.91;80.61;101077.89;1725722;81;21034;-90
2022/06/05 02:20:08;;;;;;;8.13;7.33;;;;;;;12.91;80.93;101081.84;1752716;81;21042;-90
2022/06/05 02:22:44;;;;;;;7.70;6.92;;;;;;;12.95;81.13;101075.11;1752809;81;21121;-90
2022/06/05 02:25:13;;;;;;;8.35;6.58;;;;;;;12.91;80.61;101073.52;1714870;83;21333;-90
2022/06/05 02:27:40;;;;;;;7.83;6.80;;;;;;;12.87;80.46;101082.41;1722554;83;21148;-90
2022/06/05 02:30:11;;;;;;;7.37;6.65;;;;;;;12.80;80.09;101071.69;1747235;82;21019;-91
2022/06/05 02:32:55;;;;;;;8.05;7.25;;;;;;;12.73;80.19;101085.99;1696169;83;21015;-89
2022/06/05 02:35:59;;;;;;;6.87;6.20;;;;;;;12.73;80.46;101079.42;1744721;80;20991;-90
2022/06/05 02:38:34;;;;;;;7.30;6.47;;;;;;;12.69;80.41;101079.11;1734703;81;21082;-90
2022/06/05 02:41:12;;;;;;;7.60;6.90;;;;;;;12.71;80.97;101086.49;1734310;82;21027;-89
2022/06/05 02:47:23;;;;;;;6.95;6.17;;;;;;;12.65;80.89;101082.31;1714344;82;21612;-91
2022/06/05 02:50:10;;;;;;;8.13;7.25;;;;;;;12.62;80.64;101082.88;1738984;81;21034;-89
2022/06/05 02:52:39;;;;;;;7.65;6.75;;;;;;;12.60;81.17;101089.49;1686892;81;21147;-90
2022/06/05 02:55:14;;;;;;;7.53;6.55;;;;;;;12.63;80.98;101094.64;1744518;82;21501;-87
2022/06/05 02:57:43;;;;;;;8.95;7.70;;;;;;;12.58;80.84;101091.34;1744731;82;21047;-87
2022/06/05 03:00:16;;;;;;;11.70;7.85;;;;;;;12.56;80.94;101094.47;1744643;81;21003;-87
2022/06/05 03:05:29;;;;;;;9.48;8.58;;;;;;;12.62;81.36;101095.56;1744580;82;22158;-87
2022/06/05 03:07:56;;;;;;;8.75;7.85;;;;;;;12.61;81.48;101095.17;1744493;82;21018;-86
2022/06/05 03:10:24;;;;;;;9.60;7.28;;;;;;;12.65;81.73;101098.09;1744391;82;21059;-87
2022/06/05 03:12:51;;;;;;;8.25;7.17;;;;;;;12.64;81.26;101092.44;1744564;82;21003;-87
2022/06/05 03:15:19;;;;;;;8.25;7.28;;;;;;;12.62;81.54;101092.09;1744481;82;20995;-87
2022/06/05 03:17:46;;;;;;;8.10;7.30;;;;;;;12.62;81.47;101086.36;1744555;82;21169;-87
2022/06/05 03:20:15;;;;;;;8.63;7.80;;;;;;;12.61;81.29;101087.28;1723620;82;21050;-87
2022/06/05 03:22:43;;;;;;;7.95;7.25;;;;;;;12.61;81.20;101085.09;1744643;82;20943;-87
2022/06/05 03:25:18;;;;;;;8.40;7.12;;;;;;;12.58;81.11;101089.14;1744498;81;20996;-87
2022/06/05 03:27:46;;;;;;;8.03;7.28;;;;;;;12.54;81.19;101092.80;1743650;80;21718;-87
2022/06/05 03:30:16;;;;;;;8.18;7.30;;;;;;;12.56;81.52;101092.30;1744565;82;21912;-87
2022/06/05 03:32:46;;;;;;;11.28;8.35;;;;;;;12.57;81.54;101098.80;1745024;82;21433;-87
2022/06/05 03:35:14;;;;;;;;;;;;;;;12.59;81.55;101104.88;1747156;80;20931;-83
2022/06/05 03:37:41;;;;;;;8.23;7.42;;;;;;;12.59;81.69;101105.34;1744634;82;20201;-87
2022/06/05 03:40:13;;;;;;;8.63;7.67;;;;;;;12.60;81.84;101105.27;1744745;82;21069;-87
2022/06/05 03:42:40;;;;;;;9.38;7.90;;;;;;;12.59;81.61;101099.62;1744685;82;21108;-85
2022/06/05 03:45:12;;;;;;;8.98;7.80;;;;;;;12.60;81.82;101100.47;1744723;82;21062;-87
2022/06/05 03:47:40;;;;;;;8.95;8.05;;;;;;;12.62;81.93;101101.29;1744775;82;21117;-87
2022/06/05 03:50:09;;;;;;;8.80;7.90;;;;;;;12.65;82.05;101100.72;1744575;82;21050;-87
2022/06/05 03:52:37;;;;;;;9.30;8.10;;;;;;;12.68;82.10;101101.07;1744989;82;21023;-86
2022/06/05 03:55:05;;;;;;;9.88;8.88;;;;;;;12.71;82.37;101102.28;1744664;82;21170;-86
2022/06/05 03:57:32;;;;;;;8.10;7.30;;;;;;;12.79;82.49;101107.28;1744545;82;21089;-86
2022/06/05 04:00:00;;;;;;;9.00;8.15;;;;;;;12.80;82.38;101108.52;1744583;82;21542;-86
2022/06/05 04:02:27;;;;;;;8.83;7.97;;;;;;;12.84;82.75;101106.20;1744660;81;21015;-86
2022/06/05 04:04:54;;;;;;;9.40;8.50;;;;;;;12.93;83.06;101114.22;1744651;82;21034;-87
2022/06/05 04:07:22;;;;;;;9.70;8.78;;;;;;;13.02;83.24;101105.99;1745010;82;21089;-87
2022/06/05 04:09:49;;;;;;;10.72;9.63;;;;;;;13.15;83.69;101109.05;1744625;82;21048;-87
2022/06/05 04:12:17;;;;;;;9.70;8.70;;;;;;;13.27;83.86;101109.09;1737858;82;21461;-86
2022/06/05 04:14:44;;;;;;;11.15;9.15;;;;;;;13.37;83.86;101106.06;1731350;82;21484;-86
2022/06/05 04:17:12;;;;;;;10.20;9.18;;;;;;;13.47;83.85;101111.86;1744906;82;21081;-87
2022/06/05 04:19:39;;;;;;;9.95;9.05;;;;;;;13.54;83.78;101122.54;1744618;82;21755;-87
2022/06/05 04:22:06;;;;;;;9.70;8.70;;;;;;;13.59;83.67;101121.91;1744596;81;21473;-87
2022/06/05 04:24:34;;;;;;;10.53;9.45;;;;;;;13.67;83.66;101116.83;1745030;82;21094;-87
2022/06/05 04:27:02;;;;;;;10.90;9.80;;;;;;;13.74;83.70;101120.45;1744880;82;21548;-87
2022/06/05 04:29:29;;;;;;;10.10;9.08;;;;;;;13.81;83.71;101119.77;1744717;82;21035;-82
2022/06/05 04:31:56;;;;;;;10.32;9.33;;;;;;;13.89;83.72;101122.13;1745006;82;21104;-87
2022/06/05 04:34:23;;;;;;;11.48;9.15;;;;;;;13.94;83.72;101119.70;1746278;80;21208;-87
2022/06/05 04:36:51;;;;;;;10.80;9.70;;;;;;;14.01;83.78;101119.84;1701288;83;21042;-85
2022/06/05 04:39:18;;;;;;;10.88;9.48;;;;;;;14.09;83.62;101118.69;1682663;83;21078;-87
2022/06/05 04:41:46;;;;;;;10.80;9.73;;;;;;;14.15;83.55;101118.43;1753222;80;21045;-87
2022/06/05 04:44:17;;;;;;;10.25;9.23;;;;;;;14.20;83.52;101119.11;1750617;81;21124;-88
2022/06/05 04:46:46;;;;;;;10.13;9.15;;;;;;;14.26;83.48;101117.53;1752575;81;20991;-88
2022/06/05 04:49:14;;;;;;;9.58;8.70;;;;;;;14.32;83.49;101117.27;1752880;81;21109;-88
2022/06/05 04:51:42;;;;;;;9.40;8.50;;;;;;;14.38;83.34;101118.37;1752520;81;21575;-84
2022/06/05 04:54:13;;;;;;;9.18;8.25;;;;;;;14.41;83.11;101116.91;1752939;81;21073;-86
2022/06/05 04:56:40;;;;;;;10.03;9.00;;;;;;;14.47;83.18;101115.34;1750910;81;21892;-82
2022/06/05 04:59:09;;;;;;;9.10;8.23;;;;;;;14.54;83.04;101113.31;1736326;80;21114;-83
2022/06/05 05:01:39;;;;;;;9.73;8.83;;;;;;;14.59;82.85;101115.31;1726821;81;21090;-83
2022/06/05 05:04:12;;;;;;;;;;;;;;;14.62;82.61;101112.53;1751164;81;21532;-83
2022/06/05 05:06:42;;;;;;;10.43;9.10;;;;;;;14.66;82.68;101115.45;1745589;81;21287;-87
2022/06/05 05:09:10;;;;;;;9.78;8.88;;;;;;;14.70;82.62;101113.06;1739933;81;21126;-86
2022/06/05 05:11:38;;;;;;;9.78;8.93;;;;;;;14.74;82.36;101119.06;1723252;80;21061;-86
2022/06/05 05:14:06;;;;;;;9.60;8.70;;;;;;;14.77;82.39;101111.48;1725736;81;21054;-88
2022/06/05 05:16:34;;;;;;;10.23;9.23;;;;;;;14.81;82.29;101105.16;1734054;81;21125;-87
2022/06/05 05:19:01;;;;;;;9.85;8.30;;;;;;;14.84;82.15;101099.75;1712555;81;21356;-87
2022/06/05 05:21:29;;;;;;;9.78;8.83;;;;;;;14.89;82.21;101099.09;1724846;81;21209;-85
2022/06/05 05:23:57;;;;;;;9.63;8.73;;;;;;;14.94;82.29;101099.28;1730951;81;21018;-88
2022/06/05 05:26:29;;;;;;;9.53;8.53;;;;;;;14.99;82.18;101095.56;1724720;80;21023;-83
2022/06/05 05:28:58;;;;;;;9.28;8.45;;;;;;;15.04;82.10;101080.38;1704089;81;21517;-87
2022/06/05 05:31:30;;;;;;;8.65;7.85;;;;;;;15.06;82.02;101083.34;1728397;81;21541;-84
2022/06/05 05:33:57;;;;;;;9.48;8.58;;;;;;;15.14;82.12;101086.50;1733067;81;21121;-84
2022/06/05 05:36:26;;;;;;;9.50;8.50;;;;;;;15.19;81.90;101083.66;1740143;81;21072;-85
2022/06/05 05:44:29;;;;;;;10.32;9.33;;;;;;;15.36;81.94;101073.18;1715105;81;21221;-82
2022/06/05 05:46:56;;;;;;;11.03;9.33;;;;;;;15.45;81.87;101078.97;1724876;81;21811;-83
2022/06/05 05:49:24;;;;;;;9.18;8.35;;;;;;;15.50;81.76;101070.36;1715146;81;21121;-86
2022/06/05 05:51:52;;;;;;;10.30;9.20;;;;;;;15.55;81.70;101068.37;1693103;81;21104;-88
2022/06/05 05:54:19;;;;;;;9.43;8.53;;;;;;;15.59;81.59;101066.81;1721488;81;21051;-82
2022/06/05 05:56:46;;;;;;;10.10;9.20;;;;;;;15.65;81.55;101067.45;1717869;80;21477;-83
2022/06/05 05:59:13;;;;;;;9.85;8.95;;;;;;;15.70;81.43;101063.69;1717535;81;21131;-82
2022/06/05 06:01:41;;;;;;;10.18;9.25;;;;;;;15.77;81.48;101066.92;1715135;81;21011;-82
2022/06/05 06:04:08;;;;;;;9.68;8.78;;;;;;;15.84;81.53;101067.84;1720362;81;21018;-86
2022/06/05 06:06:38;;;;;;;9.48;8.50;;;;;;;15.93;81.54;101065.22;1725303;81;21066;-89
2022/06/05 06:09:06;;;;;;;10.00;8.93;;;;;;;16.02;81.59;101068.75;1692503;81;21094;-84
2022/06/05 06:11:33;;;;;;;8.73;7.85;;;;;;;16.11;81.48;101066.59;1722078;81;22063;-82
2022/06/05 06:14:02;;;;;;;9.18;8.35;;;;;;;16.18;81.49;101057.40;1719068;81;20962;-83
2022/06/05 06:16:30;;;;;;;8.53;7.73;;;;;;;16.27;81.42;101063.58;1721753;81;21447;-88
2022/06/05 06:18:58;;;;;;;8.45;7.65;;;;;;;16.36;81.35;101059.61;1721275;81;21010;-83
2022/06/05 06:21:25;;;;;;;8.25;7.47;;;;;;;16.43;81.28;101068.48;1724191;81;21029;-82
2022/06/05 06:23:53;;;;;;;9.20;7.33;;;;;;;16.51;81.18;101063.63;1732979;81;21090;-86
2022/06/05 06:26:20;;;;;;;7.90;7.12;;;;;;;16.70;80.76;101048.13;1742354;82;21063;-90
2022/06/05 06:28:49;;;;;;;7.50;6.80;;;;;;;16.78;80.64;101047.30;1742433;82;21591;-80
2022/06/05 06:31:18;;;;;;;6.72;6.03;;;;;;;16.78;80.64;101047.30;1742286;82;21042;-83
2022/06/05 06:33:48;;;;;;;5.25;4.75;;;;;;;16.92;80.66;101052.71;1742831;82;21022;-83
2022/06/05 06:36:19;;;;;;;6.80;4.67;;;;;;;17.03;80.20;101056.59;1745336;80;21069;-81
2022/06/05 06:38:46;;;;;;;5.67;4.53;;;;;;;17.15;79.71;101059.89;1733875;81;21027;-83
2022/06/05 06:41:18;;;;;;;4.83;3.70;;;;;;;17.30;79.36;101059.55;1730914;82;21106;-83
2022/06/05 06:43:48;;;;;;;4.58;3.72;;;;;;;17.38;78.77;101049.38;1736347;80;20995;-81
2022/06/05 06:46:16;;;;;;;;;;;;;;;17.46;78.57;101056.44;1738371;80;22135;-80
2022/06/05 06:48:44;;;;;;;3.75;2.65;;;;;;;17.55;77.78;101062.55;1736096;80;21054;-83
2022/06/05 06:51:14;;;;;;;3.05;2.60;;;;;;;17.66;77.91;101059.78;1735710;82;21039;-83
2022/06/05 06:53:42;;;;;;;2.65;2.45;;;;;;;17.83;77.53;101058.38;1736102;82;21476;-83
2022/06/05 06:56:13;;;;;;;3.27;2.60;;;;;;;17.94;76.95;101059.09;1735780;82;21226;-84
2022/06/05 06:58:42;;;;;;;2.95;2.72;;;;;;;18.02;76.27;101057.70;1736111;82;21090;-83
2022/06/05 07:01:10;;;;;;;3.22;2.92;;;;;;;18.10;75.82;101063.91;1735693;80;21811;-83
2022/06/05 07:03:38;;;;;;;7.00;3.08;;;;;;;18.20;75.25;101059.75;1735906;80;21035;-88
2022/06/05 07:06:12;;;;;;;3.67;3.10;;;;;;;18.31;75.16;101061.78;1741192;82;21053;-89
2022/06/05 07:08:41;;;;;;;3.10;2.55;;;;;;;18.41;74.37;101068.73;1736482;80;21012;-86
2022/06/05 07:11:10;;;;;;;3.58;3.10;;;;;;;18.45;73.82;101063.14;1735154;82;21567;-85
2022/06/05 07:13:38;;;;;;;4.20;3.25;;;;;;;18.50;73.70;101070.84;1737061;82;21089;-91
2022/06/05 07:16:08;;;;;;;3.22;2.92;;;;;;;18.60;73.50;101065.38;1735407;82;21035;-89
2022/06/05 07:18:36;;;;;;;3.47;3.17;;;;;;;18.71;73.46;101065.58;1736175;82;21051;-82
2022/06/05 07:21:11;;;;;;;3.30;3.00;;;;;;;18.82;72.79;101058.80;1735763;82;21034;-91
2022/06/05 07:23:39;;;;;;;3.08;2.87;;;;;;;18.89;72.79;101059.64;1735956;82;21011;-92
2022/06/05 07:26:09;;;;;;;3.33;3.02;;;;;;;19.00;72.48;101054.99;1735698;82;22046;-81
2022/06/05 07:28:37;;;;;;;3.37;3.08;;;;;;;19.06;71.99;101056.41;1735739;80;20952;-88
2022/06/05 07:31:06;;;;;;;3.50;3.20;;;;;;;19.10;71.99;101052.63;1735256;80;20991;-83
2022/06/05 07:33:35;;;;;;;4.35;3.37;;;;;;;19.19;71.63;101049.88;1736089;82;21094;-84
2022/06/05 07:36:06;;;;;;;10.10;4.28;;;;;;;19.25;71.07;101049.00;1734777;81;21050;-82
2022/06/05 07:38:35;;;;;;;5.87;3.90;;;;;;;19.33;71.22;101046.71;1726922;82;21098;-85
2022/06/05 07:41:04;;;;;;;4.25;3.85;;;;;;;19.49;70.79;101043.09;1734892;82;21612;-84
2022/06/05 07:43:32;;;;;;;3.80;3.50;;;;;;;19.52;70.52;101039.75;1744926;82;21050;-84
2022/06/05 07:46:04;;;;;;;5.78;3.42;;;;;;;19.57;70.30;101042.12;1744296;82;21011;-79
2022/06/05 07:48:32;;;;;;;3.62;3.30;;;;;;;19.64;70.02;101049.22;1744724;81;21557;-83
2022/06/05 07:56:41;;;;;;;6.05;3.45;;;;;;;20.05;69.83;101033.23;1744353;82;21078;-82
2022/06/05 07:59:08;;;;;;;3.72;3.42;;;;;;;20.17;69.15;101027.55;1744761;82;21429;-81
2022/06/05 08:01:36;;;;;;;4.55;3.52;;;;;;;20.24;69.06;101025.72;1744358;82;21039;-82
2022/06/05 08:04:05;;;;;;;5.37;3.60;;;;;;;20.35;68.72;101027.66;1744763;82;21135;-80
2022/06/05 08:06:35;;;;;;;5.25;4.05;;;;;;;20.42;68.46;101026.26;1744332;82;21047;-82
2022/06/05 08:09:06;;;;;;;5.20;3.62;;;;;;;20.51;68.30;101019.48;1744658;82;21015;-79
2022/06/05 08:11:34;;;;;;;4.92;3.75;;;;;;;20.62;68.33;101014.29;1744229;82;21145;-81
2022/06/05 08:14:02;;;;;;;6.03;3.45;;;;;;;20.74;67.97;101012.58;1744656;82;21054;-81
2022/06/05 08:16:30;;;;;;;4.35;3.95;;;;;;;20.85;67.55;101010.50;1744512;82;21921;-82
2022/06/05 08:18:57;;;;;;;3.95;3.30;;;;;;;20.98;67.21;101012.67;1744697;81;21042;-81
2022/06/05 08:21:26;;;;;;;4.47;3.67;;;;;;;21.08;66.79;101011.52;1744614;82;21054;-83
2022/06/05 08:23:56;;;;;;;6.70;3.97;;;;;;;21.11;66.12;101013.48;1745073;82;21026;-81
2022/06/05 08:26:23;;;;;;;4.12;3.52;;;;;;;21.18;65.73;100999.73;1744705;82;21113;-86
2022/06/05 08:28:51;;;;;;;3.72;3.42;;;;;;;21.30;65.69;101006.34;1744800;82;21109;-77
2022/06/05 08:31:19;;;;;;;4.10;3.70;;;;;;;21.38;64.81;100994.67;1744510;82;21055;-88
2022/06/05 08:33:47;;;;;;;4.25;3.83;;;;;;;21.44;64.48;100998.70;1726130;82;21093;-76
2022/06/05 08:36:14;;;;;;;4.20;3.80;;;;;;;21.54;64.43;101006.90;1743788;81;20996;-76
2022/06/05 08:41:38;;;;;;;3.85;3.52;;;;;;;21.64;64.13;101000.38;1738190;82;21991;-77
2022/06/05 08:44:42;;;;;;;4.75;3.50;;;;;;;21.81;63.87;100994.67;1742052;82;21040;-87
2022/06/05 08:47:18;;;;;;;3.72;3.37;;;;;;;21.96;63.10;100998.84;1742165;82;21575;-76
2022/06/05 08:49:54;;;;;;;4.10;3.70;;;;;;;22.12;62.81;101005.21;1742343;82;21505;-78
2022/06/05 08:53:03;;;;;;;6.30;3.75;;;;;;;22.29;62.29;100997.28;1742459;82;21122;-82
2022/06/05 08:55:58;;;;;;;8.03;4.15;;;;;;;22.39;61.73;100998.28;1724846;82;21071;-88
2022/06/05 08:58:33;;;;;;;5.13;3.97;;;;;;;22.51;61.75;100994.29;1718882;82;21493;-90
2022/06/05 09:01:15;;;;;;;4.60;3.58;;;;;;;22.64;61.10;100995.89;1726047;82;21568;-81
2022/06/05 09:03:50;;;;;;;7.55;4.22;;;;;;;22.75;60.99;100997.69;1725343;82;21285;-78
2022/06/05 09:06:40;;;;;;;8.88;3.92;;;;;;;22.84;60.17;101002.81;1723215;82;21141;-79
2022/06/05 09:09:19;;;;;;;5.78;4.05;;;;;;;22.83;59.80;101000.60;1734922;82;21219;-86
2022/06/05 09:12:13;;;;;;;6.25;4.25;;;;;;;22.94;59.78;100996.59;1735254;82;21031;-87
2022/06/05 09:15:05;;;;;;;4.37;3.77;;;;;;;23.04;59.45;100991.41;1700468;82;21094;-82
2022/06/05 09:17:34;;;;;;;7.40;4.08;;;;;;;23.07;58.94;100988.98;1713835;82;21619;-78
2022/06/05 09:20:02;;;;;;;3.98;3.60;;;;;;;23.19;59.43;100986.64;1719125;82;21461;-87
2022/06/05 09:22:37;;;;;;;6.03;3.85;;;;;;;23.35;59.12;100985.76;1734201;80;21165;-88
2022/06/05 09:25:39;;;;;;;4.37;4.00;;;;;;;23.45;58.44;100983.69;1720509;82;20992;-85
2022/06/05 09:28:23;;;;;;;4.87;4.25;;;;;;;23.54;57.94;100992.29;1720380;82;21019;-81
2022/06/05 09:31:30;;;;;;;4.72;4.05;;;;;;;23.64;57.24;100983.88;1740789;82;21545;-77
2022/06/05 09:34:01;;;;;;;5.25;3.70;;;;;;;23.71;57.27;100973.53;1742750;82;21007;-77
2022/06/05 09:36:32;;;;;;;5.42;3.62;;;;;;;23.87;57.10;100975.28;1745127;80;21077;-81
2022/06/05 09:39:29;;;;;;;3.80;3.50;;;;;;;23.99;57.09;100976.91;1736330;81;21069;-81
2022/06/05 09:42:11;;;;;;;5.12;3.98;;;;;;;24.17;56.94;100984.39;1733546;81;21007;-77
2022/06/05 09:45:02;;;;;;;4.33;3.35;;;;;;;24.26;56.18;100977.74;1751496;81;21485;-82
2022/06/05 09:47:38;;;;;;;3.90;3.35;;;;;;;24.30;55.58;100974.80;1689809;84;21283;-86
2022/06/05 09:50:25;;;;;;;4.05;3.65;;;;;;;24.38;55.86;100973.16;1674266;84;21179;-77
2022/06/05 09:52:53;;;;;;;4.47;3.70;;;;;;;24.54;55.44;100974.55;1701292;84;21018;-76
2022/06/05 09:55:52;;;;;;;3.58;3.30;;;;;;;24.64;55.38;100966.92;1700929;84;21053;-77
2022/06/05 09:58:36;;;;;;;4.03;3.45;;;;;;;24.77;54.92;100965.33;1689116;84;21036;-94
2022/06/05 10:01:24;;;;;;;4.25;3.27;;;;;;;24.91;54.79;100959.63;1699712;84;21547;-93
2022/06/05 10:03:53;;;;;;;3.92;3.50;;;;;;;25.02;54.35;100948.41;1701293;84;21122;-79
2022/06/05 10:06:31;;;;;;;4.42;3.27;;;;;;;25.15;53.93;100945.87;1700964;84;21038;-77
2022/06/05 10:09:18;;;;;;;4.30;3.35;;;;;;;25.28;53.13;100939.41;1701457;84;21465;-77
2022/06/05 10:12:03;;;;;;;3.42;3.22;;;;;;;25.32;52.61;100936.80;1701033;84;21026;-77
2022/06/05 10:15:03;;;;;;;4.10;3.27;;;;;;;25.39;52.84;100937.94;1701373;84;21046;-77
2022/06/05 10:17:50;;;;;;;3.75;3.00;;;;;;;25.51;52.43;100938.15;1701078;84;21774;-77
2022/06/05 10:20:26;;;;;;;3.27;2.98;;;;;;;25.61;52.16;100936.83;1701420;84;21054;-81
2022/06/05 10:23:20;;;;;;;3.70;2.70;;;;;;;25.77;52.04;100935.77;1701104;84;20991;-77
2022/06/05 10:26:15;;;;;;;5.08;2.92;;;;;;;25.94;51.11;100936.91;1701076;84;21055;-78
2022/06/05 10:28:44;;;;;;;4.28;2.58;;;;;;;26.12;50.90;100937.50;1719175;82;21019;-77
2022/06/05 10:31:26;;;;;;;3.02;2.67;;;;;;;26.34;50.64;100929.09;1719230;82;21065;-78
2022/06/05 10:34:47;;;;;;;4.03;2.92;;;;;;;26.59;49.85;100927.63;1718934;83;21023;-90
2022/06/05 10:37:35;;;;;;;2.60;2.40;;;;;;;26.81;49.63;100925.55;1722292;82;21060;-77
2022/06/05 10:40:21;;;;;;;6.28;2.50;;;;;;;27.07;49.21;100915.75;1706436;81;21537;-82
2022/06/05 10:43:05;;;;;;;2.47;2.27;;;;;;;27.43;48.81;100918.50;1695665;81;21087;-79
2022/06/05 10:45:55;;;;;;;4.65;2.70;;;;;;;27.79;48.32;100912.61;1726515;83;21110;-77
2022/06/05 10:48:56;;;;;;;4.40;2.30;;;;;;;28.05;47.26;100917.20;1726421;81;21072;-93
2022/06/05 10:51:44;;;;;;;2.80;2.33;;;;;;;28.18;46.66;100922.99;1725948;83;22065;-93
2022/06/05 10:54:56;;;;;;;4.53;2.58;;;;;;;27.90;45.72;100914.72;1725146;83;21000;-77
2022/06/05 10:57:28;;;;;;;3.10;2.20;;;;;;;27.63;45.72;100907.56;1726523;81;21027;-77
2022/06/05 11:00:04;;;;;;;5.55;2.58;;;;;;;27.36;45.56;100910.20;1726237;81;21125;-90
2022/06/05 11:02:53;;;;;;;2.67;2.47;;;;;;;27.61;45.97;100902.86;1726323;81;21008;-77
2022/06/05 11:06:14;;;;;;;3.47;2.50;;;;;;;27.96;45.93;100908.70;1726435;83;21007;-76
2022/06/05 11:09:05;;;;;;;2.30;2.10;;;;;;;28.14;45.00;100897.89;1726331;81;21051;-77
2022/06/05 11:14:18;;;;;;;2.83;2.12;;;;;;;28.48;44.82;100886.30;1833851;77;23116;-78
2022/06/05 11:17:20;;;;;;;3.20;2.17;;;;;;;28.48;44.53;100891.69;1797508;77;21090;-82
2022/06/05 11:20:16;;;;;;;2.92;2.50;;;;;;;28.74;44.01;100890.27;1808440;77;21580;-86
2022/06/05 11:23:00;;;;;;;2.83;2.58;;;;;;;29.03;43.52;100890.73;1829500;78;21035;-87
2022/06/05 11:25:38;;;;;;;3.22;2.42;;;;;;;29.28;43.12;100878.63;1819788;78;21038;-77
2022/06/05 11:28:45;;;;;;;4.65;2.12;;;;;;;29.43;42.89;100876.97;1799902;78;21027;-78
2022/06/05 11:31:49;;;;;;;3.20;2.20;;;;;;;29.55;42.63;100874.77;1828520;78;21131;-78
2022/06/05 11:34:27;;;;;;;2.85;2.30;;;;;;;29.69;41.88;100875.98;1829705;78;21022;-80
2022/06/05 11:37:18;;;;;;;4.50;2.25;;;;;;;29.77;41.39;100868.70;1806961;77;21102;-81
2022/06/05 11:40:20;;;;;;;4.03;2.02;;;;;;;29.89;41.05;100865.13;1796610;77;21497;-84
2022/06/05 11:43:11;;;;;;;3.02;2.08;;;;;;;29.93;40.57;100861.56;1819959;78;21579;-77
2022/06/05 11:46:01;;;;;;;2.77;2.12;;;;;;;30.10;40.89;100854.30;1828032;77;21081;-87
2022/06/05 11:48:43;;;;;;;2.67;2.22;;;;;;;30.27;40.56;100855.95;1827879;77;21064;-78
2022/06/05 11:51:30;;;;;;;2.75;2.17;;;;;;;30.05;39.79;100846.69;1793115;77;21015;-78
2022/06/05 11:54:24;;;;;;;2.10;1.82;;;;;;;30.05;39.80;100843.98;1808949;78;21555;-79
2022/06/05 11:57:18;;;;;;;2.67;2.17;;;;;;;30.28;40.09;100843.27;1809545;78;21563;-86
2022/06/05 12:00:14;;;;;;;2.67;2.02;;;;;;;30.38;39.17;100847.45;1819250;78;21010;-91
2022/06/05 12:03:05;;;;;;;2.40;2.20;;;;;;;30.30;38.78;100843.43;1822538;78;21072;-83
2022/06/05 12:05:44;;;;;;;3.22;1.98;;;;;;;30.29;38.29;100833.64;1827240;78;21020;-88
2022/06/05 12:08:17;;;;;;;2.00;1.70;;;;;;;30.30;38.07;100826.37;1824370;78;20990;-94
2022/06/05 12:11:07;;;;;;;6.60;2.72;;;;;;;30.32;37.80;100820.25;1825383;78;21030;-78
2022/06/05 12:14:16;;;;;;;2.85;2.08;;;;;;;30.39;37.82;100819.90;1814259;78;21085;-79
2022/06/05 12:17:16;;;;;;;2.45;2.08;;;;;;;30.45;37.55;100817.31;1812813;78;21363;-81
2022/06/05 12:20:16;;;;;;;3.15;2.12;;;;;;;30.60;37.28;100812.53;1818749;78;21058;-84
2022/06/05 12:22:54;;;;;;;1.90;1.80;;;;;;;30.60;37.29;100810.66;1832033;78;21062;-90
2022/06/05 12:25:38;;;;;;;2.37;2.17;;;;;;;30.63;37.05;100811.66;1819002;77;21007;-78
2022/06/05 12:28:17;;;;;;;2.05;1.85;;;;;;;30.76;37.05;100802.97;1805002;78;21034;-82